sensor_id;sensor_type;location;lat;lon;timestamp;pressure;altitude;pressure_sealevel;temperature;humidity
29505;BME280;16452;54.174;12.092;2023-02-21T00:02:19;100813.72;;;8.91;100.00
29505;BME280;16452;54.174;12.092;2023-02-21T00:05:04;100822.53;;;8.87;100.00
29505;BME280;16452;54.174;12.092;2023-02-21T00:07:48;100826.72;;;8.91;100.00
29505;BME280;16452;54.174;12.092;2023-02-21T00:10:32;100816.72;;;8.82;100.00
29505;BME280;16452;54.174;12.092;2023-02-21T00:13:16;100800.91;;;8.86;100.00
29505;BME280;16452;54.174;12.092;2023-02-21T00:16:00;100804.84;;;8.76;100.00
29505;BME280;16452;54.174;12.092;2023-02-21T00:18:44;100812.66;;;8.95;100.00
29505;BME280;16452;54.174;12.092;2023-02-21T00:21:29;100815.75;;;8.84;100.00
29505;BME280;16452;54.174;12.092;2023-02-21T00:24:15;100797.84;;;8.97;100.00
29505;BME280;16452;54.174;12.092;2023-02-21T00:27:00;100801.34;;;8.77;100.00
29505;BME280;16452;54.174;12.092;2023-02-21T00:29:47;100804.50;;;8.84;100.00
29505;BME280;16452;54.174;12.092;2023-02-21T00:32:31;100801.56;;;8.73;100.00
29505;BME280;16452;54.174;12.092;2023-02-21T00:35:16;100789.03;;;8.81;100.00
29505;BME280;16452;54.174;12.092;2023-02-21T00:38:00;100788.78;;;8.87;100.00
29505;BME280;16452;54.174;12.092;2023-02-21T00:40:44;100785.25;;;8.69;100.00
29505;BME280;16452;54.174;12.092;2023-02-21T00:43:30;100792.81;;;8.74;100.00
29505;BME280;16452;54.174;12.092;2023-02-21T00:46:15;100780.94;;;8.88;100.00
29505;BME280;16452;54.174;12.092;2023-02-21T00:49:00;100785.28;;;8.88;100.00
29505;BME280;16452;54.174;12.092;2023-02-21T00:51:44;100781.47;;;8.76;100.00
29505;BME280;16452;54.174;12.092;2023-02-21T00:54:28;100787.28;;;8.81;100.00
29505;BME280;16452;54.174;12.092;2023-02-21T00:57:13;100773.38;;;9.02;100.00
29505;BME280;16452;54.174;12.092;2023-02-21T00:59:57;100773.13;;;8.88;100.00
29505;BME280;16452;54.174;12.092;2023-02-21T01:02:42;100778.31;;;8.88;100.00
29505;BME280;16452;54.174;12.092;2023-02-21T01:05:26;100768.84;;;8.87;100.00
29505;BME280;16452;54.174;12.092;2023-02-21T01:08:11;100772.06;;;8.92;100.00
29505;BME280;16452;54.174;12.092;2023-02-21T01:10:55;100764.16;;;8.95;100.00
29505;BME280;16452;54.174;12.092;2023-02-21T01:13:39;100773.38;;;9.02;100.00
29505;BME280;16452;54.174;12.092;2023-02-21T01:16:26;100761.47;;;8.97;100.00
29505;BME280;16452;54.174;12.092;2023-02-21T01:19:10;100765.25;;;9.08;100.00
29505;BME280;16452;54.174;12.092;2023-02-21T01:21:54;100763.78;;;9.03;100.00
29505;BME280;16452;54.174;12.092;2023-02-21T01:24:38;100766.81;;;8.94;100.00
29505;BME280;16452;54.174;12.092;2023-02-21T01:27:22;100759.94;;;8.93;100.00
29505;BME280;16452;54.174;12.092;2023-02-21T01:30:07;100764.22;;;9.13;100.00
29505;BME280;16452;54.174;12.092;2023-02-21T01:32:51;100778.41;;;9.05;100.00
29505;BME280;16452;54.174;12.092;2023-02-21T01:35:35;100783.31;;;8.93;100.00
29505;BME280;16452;54.174;12.092;2023-02-21T01:38:19;100771.84;;;8.97;100.00
29505;BME280;16452;54.174;12.092;2023-02-21T01:41:03;100783.59;;;9.05;100.00
29505;BME280;16452;54.174;12.092;2023-02-21T01:44:06;100782.81;;;9.03;100.00
29505;BME280;16452;54.174;12.092;2023-02-21T01:47:13;100785.00;;;8.94;100.00
29505;BME280;16452;54.174;12.092;2023-02-21T01:50:00;100783.03;;;8.99;100.00
29505;BME280;16452;54.174;12.092;2023-02-21T01:52:45;100783.03;;;8.99;100.00
29505;BME280;16452;54.174;12.092;2023-02-21T01:55:32;100792.72;;;8.95;100.00
29505;BME280;16452;54.174;12.092;2023-02-21T01:58:17;100784.50;;;9.04;100.00
29505;BME280;16452;54.174;12.092;2023-02-21T02:01:04;100784.03;;;8.96;100.00
29505;BME280;16452;54.174;12.092;2023-02-21T02:03:49;100784.78;;;8.98;100.00
29505;BME280;16452;54.174;12.092;2023-02-21T02:06:33;100796.28;;;8.93;100.00
29505;BME280;16452;54.174;12.092;2023-02-21T02:09:20;100796.56;;;8.87;100.00
29505;BME280;16452;54.174;12.092;2023-02-21T02:15:32;100799.44;;;8.81;100.00
29505;BME280;16452;54.174;12.092;2023-02-21T02:24:43;100812.91;;;8.70;100.00
29505;BME280;16452;54.174;12.092;2023-02-21T02:33:26;100803.78;;;8.61;100.00
29505;BME280;16452;54.174;12.092;2023-02-21T02:36:29;100809.56;;;8.48;100.00
29505;BME280;16452;54.174;12.092;2023-02-21T02:39:31;100814.22;;;8.60;100.00
29505;BME280;16452;54.174;12.092;2023-02-21T02:50:49;100808.06;;;8.42;100.00
29505;BME280;16452;54.174;12.092;2023-02-21T02:53:21;100816.63;;;8.44;100.00
29505;BME280;16452;54.174;12.092;2023-02-21T02:55:52;100805.56;;;8.39;100.00
29505;BME280;16452;54.174;12.092;2023-02-21T02:58:21;100815.53;;;8.28;100.00
29505;BME280;16452;54.174;12.092;2023-02-21T03:01:14;100811.28;;;8.47;100.00
29505;BME280;16452;54.174;12.092;2023-02-21T03:04:20;100823.31;;;8.50;100.00
29505;BME280;16452;54.174;12.092;2023-02-21T03:07:25;100822.66;;;8.45;100.00
29505;BME280;16452;54.174;12.092;2023-02-21T03:10:26;100816.69;;;8.43;100.00
29505;BME280;16452;54.174;12.092;2023-02-21T03:13:12;100824.31;;;8.25;100.00
29505;BME280;16452;54.174;12.092;2023-02-21T03:15:55;100828.09;;;8.39;100.00
29505;BME280;16452;54.174;12.092;2023-02-21T03:18:34;100830.25;;;8.27;100.00
29505;BME280;16452;54.174;12.092;2023-02-21T03:21:06;100828.44;;;8.31;100.00
29505;BME280;16452;54.174;12.092;2023-02-21T03:23:34;100829.75;;;8.19;100.00
29505;BME280;16452;54.174;12.092;2023-02-21T03:26:05;100838.19;;;8.24;100.00
29505;BME280;16452;54.174;12.092;2023-02-21T03:28:34;100851.47;;;8.17;100.00
29505;BME280;16452;54.174;12.092;2023-02-21T03:31:03;100843.25;;;8.27;100.00
29505;BME280;16452;54.174;12.092;2023-02-21T03:33:32;100842.53;;;8.24;100.00
29505;BME280;16452;54.174;12.092;2023-02-21T03:35:59;100841.03;;;8.18;100.00
29505;BME280;16452;54.174;12.092;2023-02-21T03:38:29;100841.09;;;8.17;100.00
29505;BME280;16452;54.174;12.092;2023-02-21T03:40:55;100845.78;;;8.09;100.00
29505;BME280;16452;54.174;12.092;2023-02-21T03:43:21;100841.69;;;8.23;100.00
29505;BME280;16452;54.174;12.092;2023-02-21T03:45:46;100839.84;;;8.05;100.00
29505;BME280;16452;54.174;12.092;2023-02-21T03:48:12;100833.78;;;8.27;100.00
29505;BME280;16452;54.174;12.092;2023-02-21T03:50:38;100840.78;;;8.24;100.00
29505;BME280;16452;54.174;12.092;2023-02-21T03:53:04;100835.66;;;8.23;100.00
29505;BME280;16452;54.174;12.092;2023-02-21T03:55:30;100858.41;;;8.16;100.00
29505;BME280;16452;54.174;12.092;2023-02-21T03:57:55;100864.78;;;8.09;100.00
29505;BME280;16452;54.174;12.092;2023-02-21T04:00:21;100854.66;;;8.23;100.00
29505;BME280;16452;54.174;12.092;2023-02-21T04:02:47;100851.88;;;8.28;100.00
29505;BME280;16452;54.174;12.092;2023-02-21T04:05:12;100848.34;;;8.31;100.00
29505;BME280;16452;54.174;12.092;2023-02-21T04:07:38;100849.22;;;8.30;100.00
29505;BME280;16452;54.174;12.092;2023-02-21T04:10:04;100851.88;;;8.28;100.00
29505;BME280;16452;54.174;12.092;2023-02-21T04:12:30;100857.63;;;8.36;100.00
29505;BME280;16452;54.174;12.092;2023-02-21T04:14:56;100871.31;;;8.18;100.00
29505;BME280;16452;54.174;12.092;2023-02-21T04:17:27;100874.38;;;8.27;100.00
29505;BME280;16452;54.174;12.092;2023-02-21T04:19:53;100875.22;;;8.28;100.00
29505;BME280;16452;54.174;12.092;2023-02-21T04:22:22;100867.53;;;8.27;100.00
29505;BME280;16452;54.174;12.092;2023-02-21T04:24:48;100870.38;;;8.20;100.00
29505;BME280;16452;54.174;12.092;2023-02-21T04:27:14;100886.59;;;8.25;100.00
29505;BME280;16452;54.174;12.092;2023-02-21T04:29:40;100889.63;;;8.15;100.00
29505;BME280;16452;54.174;12.092;2023-02-21T04:32:06;100888.53;;;8.20;100.00
29505;BME280;16452;54.174;12.092;2023-02-21T04:34:32;100890.63;;;8.11;100.00
29505;BME280;16452;54.174;12.092;2023-02-21T04:36:57;100891.38;;;8.14;100.00
29505;BME280;16452;54.174;12.092;2023-02-21T04:39:23;100897.16;;;8.21;100.00
29505;BME280;16452;54.174;12.092;2023-02-21T04:41:49;100903.13;;;8.01;100.00
29505;BME280;16452;54.174;12.092;2023-02-21T04:44:14;100899.22;;;8.13;100.00
29505;BME280;16452;54.174;12.092;2023-02-21T04:46:42;100904.59;;;8.08;100.00
29505;BME280;16452;54.174;12.092;2023-02-21T04:49:11;100902.28;;;8.22;100.00
29505;BME280;16452;54.174;12.092;2023-02-21T04:51:37;100892.56;;;8.06;100.00
29505;BME280;16452;54.174;12.092;2023-02-21T04:54:03;100897.53;;;7.90;100.00
29505;BME280;16452;54.174;12.092;2023-02-21T04:56:29;100893.91;;;7.94;100.00
29505;BME280;16452;54.174;12.092;2023-02-21T04:58:57;100896.97;;;7.82;100.00
29505;BME280;16452;54.174;12.092;2023-02-21T05:01:27;100904.56;;;7.87;100.00
29505;BME280;16452;54.174;12.092;2023-02-21T05:03:53;100907.84;;;7.92;100.00
29505;BME280;16452;54.174;12.092;2023-02-21T05:06:21;100915.81;;;8.09;100.00
29505;BME280;16452;54.174;12.092;2023-02-21T05:08:48;100916.97;;;8.02;100.00
29505;BME280;16452;54.174;12.092;2023-02-21T05:11:14;100919.84;;;8.16;100.00
29505;BME280;16452;54.174;12.092;2023-02-21T05:13:42;100930.63;;;8.27;100.00
29505;BME280;16452;54.174;12.092;2023-02-21T05:16:07;100917.25;;;8.16;100.00
29505;BME280;16452;54.174;12.092;2023-02-21T05:18:33;100922.81;;;8.07;100.00
29505;BME280;16452;54.174;12.092;2023-02-21T05:21:02;100913.78;;;8.15;100.00
29505;BME280;16452;54.174;12.092;2023-02-21T05:23:28;100912.06;;;8.16;100.00
29505;BME280;16452;54.174;12.092;2023-02-21T05:26:12;100915.88;;;8.07;100.00
29505;BME280;16452;54.174;12.092;2023-02-21T05:28:39;100925.88;;;8.16;100.00
29505;BME280;16452;54.174;12.092;2023-02-21T05:31:06;100928.03;;;8.27;100.00
29505;BME280;16452;54.174;12.092;2023-02-21T05:33:32;100920.53;;;8.21;100.00
29505;BME280;16452;54.174;12.092;2023-02-21T05:35:58;100920.34;;;8.25;100.00
29505;BME280;16452;54.174;12.092;2023-02-21T05:38:25;100896.31;;;8.42;100.00
29505;BME280;16452;54.174;12.092;2023-02-21T05:40:52;100904.81;;;8.24;100.00
29505;BME280;16452;54.174;12.092;2023-02-21T05:43:18;100906.38;;;8.28;100.00
29505;BME280;16452;54.174;12.092;2023-02-21T05:45:43;100907.16;;;8.32;100.00
29505;BME280;16452;54.174;12.092;2023-02-21T05:48:09;100914.72;;;8.14;100.00
29505;BME280;16452;54.174;12.092;2023-02-21T05:50:35;100921.72;;;8.12;100.00
29505;BME280;16452;54.174;12.092;2023-02-21T05:53:01;100918.28;;;8.34;100.00
29505;BME280;16452;54.174;12.092;2023-02-21T05:55:27;100917.53;;;8.32;100.00
29505;BME280;16452;54.174;12.092;2023-02-21T05:57:53;100922.31;;;8.19;100.00
29505;BME280;16452;54.174;12.092;2023-02-21T06:00:25;100917.53;;;8.32;100.00
29505;BME280;16452;54.174;12.092;2023-02-21T06:02:53;100925.38;;;8.29;100.00
29505;BME280;16452;54.174;12.092;2023-02-21T06:05:21;100917.66;;;8.27;100.00
29505;BME280;16452;54.174;12.092;2023-02-21T06:07:47;100941.63;;;8.12;100.00
29505;BME280;16452;54.174;12.092;2023-02-21T06:10:13;100938.41;;;8.27;100.00
29505;BME280;16452;54.174;12.092;2023-02-21T06:12:39;100940.44;;;8.20;100.00
29505;BME280;16452;54.174;12.092;2023-02-21T06:15:06;100938.97;;;8.13;100.00
29505;BME280;16452;54.174;12.092;2023-02-21T06:17:41;100952.19;;;8.29;100.00
29505;BME280;16452;54.174;12.092;2023-02-21T06:20:12;100950.81;;;8.20;100.00
29505;BME280;16452;54.174;12.092;2023-02-21T06:22:39;100961.91;;;8.24;100.00
29505;BME280;16452;54.174;12.092;2023-02-21T06:25:05;100957.09;;;8.15;100.00
29505;BME280;16452;54.174;12.092;2023-02-21T06:27:43;100961.91;;;8.02;100.00
29505;BME280;16452;54.174;12.092;2023-02-21T06:30:10;100949.13;;;8.19;100.00
29505;BME280;16452;54.174;12.092;2023-02-21T06:32:35;100947.66;;;8.12;100.00
29505;BME280;16452;54.174;12.092;2023-02-21T06:35:02;100945.97;;;8.11;100.00
29505;BME280;16452;54.174;12.092;2023-02-21T06:37:28;100957.50;;;8.26;100.00
29505;BME280;16452;54.174;12.092;2023-02-21T06:39:54;100953.75;;;8.11;100.00
29505;BME280;16452;54.174;12.092;2023-02-21T06:42:20;100964.06;;;8.13;100.00
29505;BME280;16452;54.174;12.092;2023-02-21T06:44:48;100961.44;;;8.14;100.00
29505;BME280;16452;54.174;12.092;2023-02-21T06:47:15;100965.41;;;8.23;100.00
29505;BME280;16452;54.174;12.092;2023-02-21T06:49:42;100954.88;;;8.04;100.00
29505;BME280;16452;54.174;12.092;2023-02-21T06:52:08;100964.38;;;8.27;100.00
29505;BME280;16452;54.174;12.092;2023-02-21T06:54:34;100975.84;;;8.21;100.00
29505;BME280;16452;54.174;12.092;2023-02-21T06:57:00;100981.81;;;8.23;100.00
29505;BME280;16452;54.174;12.092;2023-02-21T06:59:27;100975.91;;;8.20;100.00
29505;BME280;16452;54.174;12.092;2023-02-21T07:01:54;100979.59;;;8.14;100.00
29505;BME280;16452;54.174;12.092;2023-02-21T07:04:20;100982.00;;;8.19;100.00
29505;BME280;16452;54.174;12.092;2023-02-21T07:06:46;100973.25;;;8.21;100.00
29505;BME280;16452;54.174;12.092;2023-02-21T07:09:12;100984.94;;;8.10;100.00
29505;BME280;16452;54.174;12.092;2023-02-21T07:11:37;100992.25;;;8.22;100.00
29505;BME280;16452;54.174;12.092;2023-02-21T07:14:03;100997.53;;;8.20;100.00
29505;BME280;16452;54.174;12.092;2023-02-21T07:16:29;101000.66;;;8.29;100.00
29505;BME280;16452;54.174;12.092;2023-02-21T07:18:55;101001.03;;;8.19;100.00
29505;BME280;16452;54.174;12.092;2023-02-21T07:21:21;100999.03;;;8.26;100.00
29505;BME280;16452;54.174;12.092;2023-02-21T07:23:48;101002.13;;;8.36;100.00
29505;BME280;16452;54.174;12.092;2023-02-21T07:26:14;101012.00;;;8.26;100.00
29505;BME280;16452;54.174;12.092;2023-02-21T07:28:40;101017.53;;;8.40;100.00
29505;BME280;16452;54.174;12.092;2023-02-21T07:31:06;101012.47;;;8.37;100.00
29505;BME280;16452;54.174;12.092;2023-02-21T07:33:32;101015.28;;;8.53;100.00
29505;BME280;16452;54.174;12.092;2023-02-21T07:35:59;101020.44;;;8.54;100.00
29505;BME280;16452;54.174;12.092;2023-02-21T07:38:27;101020.25;;;8.59;100.00
29505;BME280;16452;54.174;12.092;2023-02-21T07:40:55;101026.34;;;8.58;100.00
29505;BME280;16452;54.174;12.092;2023-02-21T07:43:21;101023.94;;;8.53;100.00
29505;BME280;16452;54.174;12.092;2023-02-21T07:45:48;101028.69;;;8.64;100.00
29505;BME280;16452;54.174;12.092;2023-02-21T07:48:14;101041.38;;;8.72;100.00
29505;BME280;16452;54.174;12.092;2023-02-21T07:50:41;101056.50;;;9.04;100.00
29505;BME280;16452;54.174;12.092;2023-02-21T07:53:07;101058.41;;;9.21;100.00
29505;BME280;16452;54.174;12.092;2023-02-21T07:55:34;101063.28;;;9.08;100.00
29505;BME280;16452;54.174;12.092;2023-02-21T07:57:59;101057.72;;;8.74;100.00
29505;BME280;16452;54.174;12.092;2023-02-21T08:00:25;101055.13;;;8.95;100.00
29505;BME280;16452;54.174;12.092;2023-02-21T08:02:51;101057.50;;;9.01;100.00
29505;BME280;16452;54.174;12.092;2023-02-21T08:05:19;101064.53;;;8.98;100.00
29505;BME280;16452;54.174;12.092;2023-02-21T08:07:45;101073.25;;;8.97;100.00
29505;BME280;16452;54.174;12.092;2023-02-21T08:10:17;101085.34;;;8.98;100.00
29505;BME280;16452;54.174;12.092;2023-02-21T08:12:43;101086.19;;;8.98;100.00
29505;BME280;16452;54.174;12.092;2023-02-21T08:15:09;101086.22;;;8.97;100.00
29505;BME280;16452;54.174;12.092;2023-02-21T08:17:34;101094.03;;;8.97;100.00
29505;BME280;16452;54.174;12.092;2023-02-21T08:20:01;101091.34;;;9.20;100.00
29505;BME280;16452;54.174;12.092;2023-02-21T08:22:26;101090.41;;;9.01;100.00
29505;BME280;16452;54.174;12.092;2023-02-21T08:24:52;101082.00;;;9.16;100.00
29505;BME280;16452;54.174;12.092;2023-02-21T08:27:18;101094.63;;;9.25;100.00
29505;BME280;16452;54.174;12.092;2023-02-21T08:29:44;101104.16;;;9.25;100.00
29505;BME280;16452;54.174;12.092;2023-02-21T08:32:09;101099.06;;;9.01;100.00
29505;BME280;16452;54.174;12.092;2023-02-21T08:34:35;101110.59;;;8.94;100.00
29505;BME280;16452;54.174;12.092;2023-02-21T08:37:01;101107.81;;;8.99;100.00
29505;BME280;16452;54.174;12.092;2023-02-21T08:39:31;101108.56;;;9.23;100.00
29505;BME280;16452;54.174;12.092;2023-02-21T08:41:57;101116.06;;;9.30;100.00
29505;BME280;16452;54.174;12.092;2023-02-21T08:44:22;101118.59;;;9.32;100.00
29505;BME280;16452;54.174;12.092;2023-02-21T08:46:48;101123.53;;;9.18;100.00
29505;BME280;16452;54.174;12.092;2023-02-21T08:49:14;101131.41;;;9.36;100.00
29505;BME280;16452;54.174;12.092;2023-02-21T08:51:40;101133.63;;;9.25;100.00
29505;BME280;16452;54.174;12.092;2023-02-21T08:54:06;101136.53;;;9.38;100.00
29505;BME280;16452;54.174;12.092;2023-02-21T08:56:33;101140.31;;;9.51;100.00
29505;BME280;16452;54.174;12.092;2023-02-21T08:59:04;101144.31;;;9.60;100.00
29505;BME280;16452;54.174;12.092;2023-02-21T09:01:34;101140.94;;;9.78;99.13
29505;BME280;16452;54.174;12.092;2023-02-21T09:04:05;101146.03;;;9.79;98.39
29505;BME280;16452;54.174;12.092;2023-02-21T09:06:31;101143.28;;;9.84;97.48
29505;BME280;16452;54.174;12.092;2023-02-21T09:08:57;101142.34;;;9.85;98.41
29505;BME280;16452;54.174;12.092;2023-02-21T09:11:23;101160.50;;;9.86;97.81
29505;BME280;16452;54.174;12.092;2023-02-21T09:13:49;101148.25;;;9.68;97.76
29505;BME280;16452;54.174;12.092;2023-02-21T09:16:14;101150.81;;;9.70;98.70
29505;BME280;16452;54.174;12.092;2023-02-21T09:18:40;101160.50;;;9.86;97.98
29505;BME280;16452;54.174;12.092;2023-02-21T09:21:06;101152.94;;;9.80;96.90
29505;BME280;16452;54.174;12.092;2023-02-21T09:23:32;101157.06;;;9.66;98.43
29505;BME280;16452;54.174;12.092;2023-02-21T09:25:58;101162.38;;;9.63;97.72
29505;BME280;16452;54.174;12.092;2023-02-21T09:28:24;101153.06;;;9.98;97.21
29505;BME280;16452;54.174;12.092;2023-02-21T09:30:50;101154.19;;;9.72;97.81
29505;BME280;16452;54.174;12.092;2023-02-21T09:33:17;101159.31;;;9.73;98.18
29505;BME280;16452;54.174;12.092;2023-02-21T09:35:42;101165.47;;;9.72;97.82
29505;BME280;16452;54.174;12.092;2023-02-21T09:38:09;101168.44;;;9.63;98.85
29505;BME280;16452;54.174;12.092;2023-02-21T09:40:47;101173.66;;;9.83;98.17
29505;BME280;16452;54.174;12.092;2023-02-21T09:45:44;101168.44;;;9.83;97.96
29505;BME280;16452;54.174;12.092;2023-02-21T09:48:16;101169.94;;;9.89;97.76
29505;BME280;16452;54.174;12.092;2023-02-21T09:50:53;101184.72;;;9.88;96.97
29505;BME280;16452;54.174;12.092;2023-02-21T09:53:28;101191.59;;;9.89;97.16
29505;BME280;16452;54.174;12.092;2023-02-21T09:56:30;101195.56;;;9.98;97.66
29505;BME280;16452;54.174;12.092;2023-02-21T09:58:59;101191.25;;;9.97;96.86
29505;BME280;16452;54.174;12.092;2023-02-21T10:07:01;101191.91;;;10.02;96.44
29505;BME280;16452;54.174;12.092;2023-02-21T10:10:04;101198.44;;;10.12;96.05
29505;BME280;16452;54.174;12.092;2023-02-21T10:12:43;101198.25;;;10.17;95.13
29505;BME280;16452;54.174;12.092;2023-02-21T10:15:49;101195.25;;;10.06;95.95
29505;BME280;16452;54.174;12.092;2023-02-21T10:19:01;101200.66;;;10.21;94.88
29505;BME280;16452;54.174;12.092;2023-02-21T10:21:34;101203.56;;;9.94;96.39
29505;BME280;16452;54.174;12.092;2023-02-21T10:24:15;101217.22;;;9.99;95.79
29505;BME280;16452;54.174;12.092;2023-02-21T10:27:09;101216.19;;;10.03;95.84
29505;BME280;16452;54.174;12.092;2023-02-21T10:29:59;101212.88;;;9.99;96.59
29505;BME280;16452;54.174;12.092;2023-02-21T10:32:26;101215.69;;;9.95;96.47
29505;BME280;16452;54.174;12.092;2023-02-21T10:34:52;101213.63;;;9.81;96.33
29505;BME280;16452;54.174;12.092;2023-02-21T10:37:40;101229.28;;;9.59;98.41
29505;BME280;16452;54.174;12.092;2023-02-21T10:43:31;101230.41;;;9.74;98.19
29505;BME280;16452;54.174;12.092;2023-02-21T10:46:37;101232.75;;;9.80;98.32
29505;BME280;16452;54.174;12.092;2023-02-21T10:49:24;101227.25;;;9.87;97.21
29505;BME280;16452;54.174;12.092;2023-02-21T10:52:13;101231.69;;;10.06;96.30
29505;BME280;16452;54.174;12.092;2023-02-21T10:54:45;101241.75;;;9.93;96.40
29505;BME280;16452;54.174;12.092;2023-02-21T10:57:24;101240.44;;;10.03;95.94
29505;BME280;16452;54.174;12.092;2023-02-21T10:59:50;101244.66;;;10.27;94.74
29505;BME280;16452;54.174;12.092;2023-02-21T11:02:37;101255.25;;;10.43;94.07
29505;BME280;16452;54.174;12.092;2023-02-21T11:05:18;101240.22;;;10.29;94.11
29505;BME280;16452;54.174;12.092;2023-02-21T11:08:06;101245.56;;;10.26;95.00
29505;BME280;16452;54.174;12.092;2023-02-21T11:10:42;101233.59;;;10.22;94.22
29505;BME280;16452;54.174;12.092;2023-02-21T11:13:16;101236.47;;;10.16;94.20
29505;BME280;16452;54.174;12.092;2023-02-21T11:15:44;101246.81;;;10.18;94.29
29505;BME280;16452;54.174;12.092;2023-02-21T11:18:18;101252.19;;;10.34;93.21
29505;BME280;16452;54.174;12.092;2023-02-21T11:20:47;101251.59;;;10.07;94.48
29505;BME280;16452;54.174;12.092;2023-02-21T11:23:24;101241.31;;;9.83;95.30
29505;BME280;16452;54.174;12.092;2023-02-21T11:26:09;101242.28;;;10.01;95.38
29505;BME280;16452;54.174;12.092;2023-02-21T11:28:44;101237.00;;;9.82;96.50
29505;BME280;16452;54.174;12.092;2023-02-21T11:31:28;101256.06;;;9.83;96.46
29505;BME280;16452;54.174;12.092;2023-02-21T11:34:02;101256.19;;;9.80;96.48
29505;BME280;16452;54.174;12.092;2023-02-21T11:36:35;101258.53;;;9.86;96.43
29505;BME280;16452;54.174;12.092;2023-02-21T11:39:22;101253.94;;;10.13;95.38
29505;BME280;16452;54.174;12.092;2023-02-21T11:41:58;101258.47;;;10.08;95.11
29505;BME280;16452;54.174;12.092;2023-02-21T11:44:37;101254.09;;;10.30;94.58
29505;BME280;16452;54.174;12.092;2023-02-21T11:47:20;101260.06;;;10.32;93.39
29505;BME280;16452;54.174;12.092;2023-02-21T11:49:52;101265.53;;;10.26;94.19
29505;BME280;16452;54.174;12.092;2023-02-21T11:52:43;101257.38;;;10.13;94.18
29505;BME280;16452;54.174;12.092;2023-02-21T11:55:19;101258.84;;;10.20;94.79
29505;BME280;16452;54.174;12.092;2023-02-21T12:01:05;101261.97;;;10.28;92.72
29505;BME280;16452;54.174;12.092;2023-02-21T12:06:35;101254.63;;;10.18;93.24
29505;BME280;16452;54.174;12.092;2023-02-21T12:10:01;101259.91;;;10.15;93.38
29505;BME280;16452;54.174;12.092;2023-02-21T12:12:39;101265.72;;;10.01;93.50
29505;BME280;16452;54.174;12.092;2023-02-21T12:15:47;101267.25;;;9.85;94.59
29505;BME280;16452;54.174;12.092;2023-02-21T12:32:27;101265.44;;;10.29;92.71
29505;BME280;16452;54.174;12.092;2023-02-21T12:38:17;101262.19;;;10.43;92.33
29505;BME280;16452;54.174;12.092;2023-02-21T12:52:51;101269.38;;;10.38;91.38
29505;BME280;16452;54.174;12.092;2023-02-21T12:55:29;101274.59;;;10.17;91.83
29505;BME280;16452;54.174;12.092;2023-02-21T12:58:37;101276.03;;;10.03;92.22
29505;BME280;16452;54.174;12.092;2023-02-21T13:01:25;101268.81;;;10.09;93.31
29505;BME280;16452;54.174;12.092;2023-02-21T13:04:14;101269.84;;;10.27;92.73
29505;BME280;16452;54.174;12.092;2023-02-21T13:10:25;101276.59;;;10.31;92.41
29505;BME280;16452;54.174;12.092;2023-02-21T13:13:13;101281.94;;;10.28;92.11
29505;BME280;16452;54.174;12.092;2023-02-21T13:15:41;101287.00;;;10.11;92.72
29505;BME280;16452;54.174;12.092;2023-02-21T13:23:36;101292.41;;;10.67;90.96
29505;BME280;16452;54.174;12.092;2023-02-21T13:29:00;101290.88;;;10.22;92.12
29505;BME280;16452;54.174;12.092;2023-02-21T13:31:34;101285.16;;;10.35;91.98
29505;BME280;16452;54.174;12.092;2023-02-21T13:34:09;101294.84;;;10.09;93.22
29505;BME280;16452;54.174;12.092;2023-02-21T13:36:40;101291.06;;;9.96;93.55
29505;BME280;16452;54.174;12.092;2023-02-21T13:39:25;101295.16;;;10.02;93.41
29505;BME280;16452;54.174;12.092;2023-02-21T13:42:18;101283.16;;;9.99;93.73
29505;BME280;16452;54.174;12.092;2023-02-21T13:44:48;101283.09;;;10.01;94.51
29505;BME280;16452;54.174;12.092;2023-02-21T13:47:22;101284.06;;;9.98;94.53
29505;BME280;16452;54.174;12.092;2023-02-21T13:49:56;101281.59;;;10.15;94.54
29505;BME280;16452;54.174;12.092;2023-02-21T13:57:43;101296.88;;;10.03;94.52
29505;BME280;16452;54.174;12.092;2023-02-21T14:03:10;101291.22;;;10.13;94.29
29505;BME280;16452;54.174;12.092;2023-02-21T14:08:43;101302.91;;;10.45;91.53
29505;BME280;16452;54.174;12.092;2023-02-21T14:11:24;101300.38;;;10.23;93.12
29505;BME280;16452;54.174;12.092;2023-02-21T14:14:04;101314.38;;;10.41;91.96
29505;BME280;16452;54.174;12.092;2023-02-21T14:16:52;101304.88;;;10.40;91.65
29505;BME280;16452;54.174;12.092;2023-02-21T14:19:30;101311.84;;;10.40;92.03
29505;BME280;16452;54.174;12.092;2023-02-21T14:22:12;101310.00;;;10.21;92.61
29505;BME280;16452;54.174;12.092;2023-02-21T14:24:43;101307.84;;;10.31;92.19
29505;BME280;16452;54.174;12.092;2023-02-21T14:29:38;101316.09;;;10.42;91.13
29505;BME280;16452;54.174;12.092;2023-02-21T14:37:36;101318.06;;;10.56;89.90
29505;BME280;16452;54.174;12.092;2023-02-21T14:43:29;101318.06;;;10.56;89.18
29505;BME280;16452;54.174;12.092;2023-02-21T14:49:44;101327.78;;;10.52;88.16
29505;BME280;16452;54.174;12.092;2023-02-21T14:58:46;101324.28;;;10.33;89.66
29505;BME280;16452;54.174;12.092;2023-02-21T15:02:09;101328.91;;;10.47;90.57
29505;BME280;16452;54.174;12.092;2023-02-21T15:04:50;101328.81;;;10.68;89.58
29505;BME280;16452;54.174;12.092;2023-02-21T15:10:32;101324.59;;;10.46;88.20
29505;BME280;16452;54.174;12.092;2023-02-21T15:13:04;101323.66;;;10.26;88.65
29505;BME280;16452;54.174;12.092;2023-02-21T15:15:42;101319.47;;;10.24;89.41
29505;BME280;16452;54.174;12.092;2023-02-21T15:19:04;101330.31;;;10.34;88.25